sensor_id;sensor_type;location;lat;lon;timestamp;P1;durP1;ratioP1;P2;durP2;ratioP2
4106;SDS011;21906;50.812;7.132;2023-04-02T00:07:54;2.23;;;2.13;;
4106;SDS011;21906;50.812;7.132;2023-04-02T00:10:48;2.03;;;1.93;;
4106;SDS011;21906;50.812;7.132;2023-04-02T00:15:42;2.23;;;2.13;;
4106;SDS011;21906;50.812;7.132;2023-04-02T00:18:17;1.90;;;1.80;;
4106;SDS011;21906;50.812;7.132;2023-04-02T00:20:46;2.30;;;2.03;;
4106;SDS011;21906;50.812;7.132;2023-04-02T00:23:32;1.90;;;1.80;;
4106;SDS011;21906;50.812;7.132;2023-04-02T00:26:05;2.60;;;2.40;;
4106;SDS011;21906;50.812;7.132;2023-04-02T00:29:06;2.37;;;2.17;;
4106;SDS011;21906;50.812;7.132;2023-04-02T00:31:36;2.77;;;2.57;;
4106;SDS011;21906;50.812;7.132;2023-04-02T00:34:05;2.50;;;2.37;;
4106;SDS011;21906;50.812;7.132;2023-04-02T00:36:33;2.87;;;2.47;;
4106;SDS011;21906;50.812;7.132;2023-04-02T00:39:01;2.50;;;2.30;;
4106;SDS011;21906;50.812;7.132;2023-04-02T00:41:31;2.60;;;2.40;;
4106;SDS011;21906;50.812;7.132;2023-04-02T00:44:00;2.43;;;2.33;;
4106;SDS011;21906;50.812;7.132;2023-04-02T00:46:30;2.67;;;2.47;;
4106;SDS011;21906;50.812;7.132;2023-04-02T00:49:13;2.70;;;2.50;;
4106;SDS011;21906;50.812;7.132;2023-04-02T00:51:52;2.80;;;2.60;;
4106;SDS011;21906;50.812;7.132;2023-04-02T00:54:22;3.20;;;3.00;;
4106;SDS011;21906;50.812;7.132;2023-04-02T00:56:51;2.60;;;2.40;;
4106;SDS011;21906;50.812;7.132;2023-04-02T01:04:53;3.20;;;3.00;;
4106;SDS011;21906;50.812;7.132;2023-04-02T01:07:52;3.00;;;2.80;;
4106;SDS011;21906;50.812;7.132;2023-04-02T01:10:44;2.70;;;2.50;;
4106;SDS011;21906;50.812;7.132;2023-04-02T01:13:23;2.67;;;2.47;;
4106;SDS011;21906;50.812;7.132;2023-04-02T01:16:31;2.73;;;2.53;;
4106;SDS011;21906;50.812;7.132;2023-04-02T01:24:55;2.97;;;2.77;;
4106;SDS011;21906;50.812;7.132;2023-04-02T01:27:31;2.93;;;2.73;;
4106;SDS011;21906;50.812;7.132;2023-04-02T01:30:03;2.70;;;2.50;;
4106;SDS011;21906;50.812;7.132;2023-04-02T01:32:31;3.13;;;2.70;;
4106;SDS011;21906;50.812;7.132;2023-04-02T01:34:58;3.40;;;3.10;;
4106;SDS011;21906;50.812;7.132;2023-04-02T01:37:37;3.27;;;2.93;;
4106;SDS011;21906;50.812;7.132;2023-04-02T01:45:44;2.30;;;2.20;;
4106;SDS011;21906;50.812;7.132;2023-04-02T01:48:17;2.80;;;2.60;;
4106;SDS011;21906;50.812;7.132;2023-04-02T01:50:46;3.80;;;2.63;;
4106;SDS011;21906;50.812;7.132;2023-04-02T01:53:15;2.97;;;2.77;;
4106;SDS011;21906;50.812;7.132;2023-04-02T01:55:43;3.00;;;2.50;;
4106;SDS011;21906;50.812;7.132;2023-04-02T01:58:11;2.93;;;2.73;;
4106;SDS011;21906;50.812;7.132;2023-04-02T02:00:46;2.90;;;2.70;;
4106;SDS011;21906;50.812;7.132;2023-04-02T02:03:15;2.73;;;2.53;;
4106;SDS011;21906;50.812;7.132;2023-04-02T02:05:42;3.07;;;2.33;;
4106;SDS011;21906;50.812;7.132;2023-04-02T02:08:25;2.43;;;2.33;;
4106;SDS011;21906;50.812;7.132;2023-04-02T02:10:56;2.77;;;2.57;;
4106;SDS011;21906;50.812;7.132;2023-04-02T02:13:22;2.47;;;2.27;;
4106;SDS011;21906;50.812;7.132;2023-04-02T02:15:49;2.67;;;2.37;;
4106;SDS011;21906;50.812;7.132;2023-04-02T02:18:16;3.10;;;2.47;;
4106;SDS011;21906;50.812;7.132;2023-04-02T02:20:47;2.63;;;2.43;;
4106;SDS011;21906;50.812;7.132;2023-04-02T02:23:14;2.70;;;2.50;;
4106;SDS011;21906;50.812;7.132;2023-04-02T02:25:40;2.70;;;2.50;;
4106;SDS011;21906;50.812;7.132;2023-04-02T02:31:11;2.80;;;2.60;;
4106;SDS011;21906;50.812;7.132;2023-04-02T02:33:32;2.83;;;2.50;;
4106;SDS011;21906;50.812;7.132;2023-04-02T02:41:36;4.40;;;3.93;;
4106;SDS011;21906;50.812;7.132;2023-04-02T02:46:45;4.30;;;4.00;;
4106;SDS011;21906;50.812;7.132;2023-04-02T02:49:27;4.13;;;3.83;;
4106;SDS011;21906;50.812;7.132;2023-04-02T02:52:11;3.47;;;3.27;;
4106;SDS011;21906;50.812;7.132;2023-04-02T02:54:42;3.10;;;2.80;;
4106;SDS011;21906;50.812;7.132;2023-04-02T02:57:13;2.70;;;2.50;;
4106;SDS011;21906;50.812;7.132;2023-04-02T02:59:44;2.33;;;2.00;;
4106;SDS011;21906;50.812;7.132;2023-04-02T03:02:11;1.63;;;1.53;;
4106;SDS011;21906;50.812;7.132;2023-04-02T03:04:38;1.60;;;1.50;;
4106;SDS011;21906;50.812;7.132;2023-04-02T03:07:04;1.70;;;1.60;;
4106;SDS011;21906;50.812;7.132;2023-04-02T03:09:53;1.70;;;1.60;;
4106;SDS011;21906;50.812;7.132;2023-04-02T03:12:35;1.50;;;1.40;;
4106;SDS011;21906;50.812;7.132;2023-04-02T03:18:02;1.87;;;1.77;;
4106;SDS011;21906;50.812;7.132;2023-04-02T03:23:40;2.33;;;2.13;;
4106;SDS011;21906;50.812;7.132;2023-04-02T03:26:18;2.67;;;2.47;;
4106;SDS011;21906;50.812;7.132;2023-04-02T03:28:59;2.83;;;2.43;;
4106;SDS011;21906;50.812;7.132;2023-04-02T03:32:16;3.10;;;2.80;;
4106;SDS011;21906;50.812;7.132;2023-04-02T03:34:25;2.70;;;2.50;;
4106;SDS011;21906;50.812;7.132;2023-04-02T03:39:41;2.83;;;2.63;;
4106;SDS011;21906;50.812;7.132;2023-04-02T03:42:18;3.20;;;3.00;;
4106;SDS011;21906;50.812;7.132;2023-04-02T03:44:51;3.67;;;3.47;;
4106;SDS011;21906;50.812;7.132;2023-04-02T03:50:16;3.50;;;3.23;;
4106;SDS011;21906;50.812;7.132;2023-04-02T03:53:06;3.67;;;3.37;;
4106;SDS011;21906;50.812;7.132;2023-04-02T03:55:34;3.53;;;3.33;;
4106;SDS011;21906;50.812;7.132;2023-04-02T04:00:51;3.63;;;3.40;;
4106;SDS011;21906;50.812;7.132;2023-04-02T04:03:20;4.13;;;3.80;;
4106;SDS011;21906;50.812;7.132;2023-04-02T04:05:56;3.60;;;3.30;;
4106;SDS011;21906;50.812;7.132;2023-04-02T04:08:26;3.40;;;3.20;;
4106;SDS011;21906;50.812;7.132;2023-04-02T04:10:58;4.13;;;3.83;;
4106;SDS011;21906;50.812;7.132;2023-04-02T04:13:33;3.67;;;3.37;;
4106;SDS011;21906;50.812;7.132;2023-04-02T04:16:23;3.80;;;3.50;;
4106;SDS011;21906;50.812;7.132;2023-04-02T04:19:03;3.73;;;3.43;;
4106;SDS011;21906;50.812;7.132;2023-04-02T04:21:38;3.20;;;3.00;;
4106;SDS011;21906;50.812;7.132;2023-04-02T04:24:24;4.73;;;3.17;;
4106;SDS011;21906;50.812;7.132;2023-04-02T04:32:21;3.70;;;3.40;;
4106;SDS011;21906;50.812;7.132;2023-04-02T04:34:54;3.73;;;3.43;;
4106;SDS011;21906;50.812;7.132;2023-04-02T04:37:35;3.60;;;3.40;;
4106;SDS011;21906;50.812;7.132;2023-04-02T04:40:12;4.00;;;3.70;;
4106;SDS011;21906;50.812;7.132;2023-04-02T04:42:43;4.80;;;4.40;;
4106;SDS011;21906;50.812;7.132;2023-04-02T04:45:15;4.90;;;4.50;;
4106;SDS011;21906;50.812;7.132;2023-04-02T04:47:56;4.10;;;3.80;;
4106;SDS011;21906;50.812;7.132;2023-04-02T04:50:38;4.53;;;4.13;;
4106;SDS011;21906;50.812;7.132;2023-04-02T04:53:13;4.13;;;3.83;;
4106;SDS011;21906;50.812;7.132;2023-04-02T04:55:47;4.43;;;4.13;;
4106;SDS011;21906;50.812;7.132;2023-04-02T05:00:53;4.83;;;4.30;;
4106;SDS011;21906;50.812;7.132;2023-04-02T05:03:36;4.30;;;4.00;;
4106;SDS011;21906;50.812;7.132;2023-04-02T05:06:14;4.87;;;4.47;;
4106;SDS011;21906;50.812;7.132;2023-04-02T05:08:43;5.20;;;4.60;;
4106;SDS011;21906;50.812;7.132;2023-04-02T05:11:58;6.13;;;5.53;;
4106;SDS011;21906;50.812;7.132;2023-04-02T05:14:22;5.10;;;4.70;;
4106;SDS011;21906;50.812;7.132;2023-04-02T05:17:15;6.63;;;5.20;;
4106;SDS011;21906;50.812;7.132;2023-04-02T05:19:50;5.60;;;5.10;;
4106;SDS011;21906;50.812;7.132;2023-04-02T05:25:08;5.10;;;4.70;;
4106;SDS011;21906;50.812;7.132;2023-04-02T05:27:47;7.00;;;5.20;;
4106;SDS011;21906;50.812;7.132;2023-04-02T05:33:21;5.03;;;4.53;;
4106;SDS011;21906;50.812;7.132;2023-04-02T05:35:55;5.47;;;5.00;;
4106;SDS011;21906;50.812;7.132;2023-04-02T05:38:27;4.97;;;4.47;;
4106;SDS011;21906;50.812;7.132;2023-04-02T05:41:00;5.80;;;4.77;;
4106;SDS011;21906;50.812;7.132;2023-04-02T05:43:47;5.10;;;4.63;;
4106;SDS011;21906;50.812;7.132;2023-04-02T05:46:16;4.40;;;4.10;;
4106;SDS011;21906;50.812;7.132;2023-04-02T05:48:50;4.57;;;4.17;;
4106;SDS011;21906;50.812;7.132;2023-04-02T05:51:34;4.80;;;4.40;;
4106;SDS011;21906;50.812;7.132;2023-04-02T05:54:06;4.37;;;3.97;;
4106;SDS011;21906;50.812;7.132;2023-04-02T05:56:42;3.87;;;3.63;;
4106;SDS011;21906;50.812;7.132;2023-04-02T05:59:15;3.87;;;3.67;;
4106;SDS011;21906;50.812;7.132;2023-04-02T06:01:48;3.60;;;3.40;;
4106;SDS011;21906;50.812;7.132;2023-04-02T06:04:22;3.70;;;3.40;;
4106;SDS011;21906;50.812;7.132;2023-04-02T06:12:44;3.70;;;3.50;;
4106;SDS011;21906;50.812;7.132;2023-04-02T06:14:48;3.10;;;2.90;;
4106;SDS011;21906;50.812;7.132;2023-04-02T06:17:15;3.63;;;3.43;;
4106;SDS011;21906;50.812;7.132;2023-04-02T06:19:42;4.23;;;2.90;;
4106;SDS011;21906;50.812;7.132;2023-04-02T06:22:18;3.20;;;2.90;;
4106;SDS011;21906;50.812;7.132;2023-04-02T06:24:49;3.03;;;2.83;;
4106;SDS011;21906;50.812;7.132;2023-04-02T06:27:20;3.23;;;3.03;;
4106;SDS011;21906;50.812;7.132;2023-04-02T06:29:50;3.27;;;3.07;;
4106;SDS011;21906;50.812;7.132;2023-04-02T06:32:19;3.20;;;3.00;;
4106;SDS011;21906;50.812;7.132;2023-04-02T06:34:49;3.50;;;3.17;;
4106;SDS011;21906;50.812;7.132;2023-04-02T06:40:01;3.70;;;3.47;;
4106;SDS011;21906;50.812;7.132;2023-04-02T06:44:59;3.43;;;3.13;;
4106;SDS011;21906;50.812;7.132;2023-04-02T06:47:32;3.77;;;3.47;;
4106;SDS011;21906;50.812;7.132;2023-04-02T06:52:39;3.47;;;3.23;;
4106;SDS011;21906;50.812;7.132;2023-04-02T06:57:51;3.43;;;3.23;;
4106;SDS011;21906;50.812;7.132;2023-04-02T07:00:36;3.53;;;3.33;;
4106;SDS011;21906;50.812;7.132;2023-04-02T07:03:16;4.10;;;3.80;;
4106;SDS011;21906;50.812;7.132;2023-04-02T07:05:47;4.43;;;4.13;;
4106;SDS011;21906;50.812;7.132;2023-04-02T07:08:12;4.23;;;3.93;;
4106;SDS011;21906;50.812;7.132;2023-04-02T07:10:38;3.93;;;3.63;;
4106;SDS011;21906;50.812;7.132;2023-04-02T07:13:04;4.10;;;3.80;;
4106;SDS011;21906;50.812;7.132;2023-04-02T07:15:30;4.47;;;4.17;;
4106;SDS011;21906;50.812;7.132;2023-04-02T07:17:57;4.63;;;4.33;;
4106;SDS011;21906;50.812;7.132;2023-04-02T07:20:31;4.23;;;3.93;;
4106;SDS011;21906;50.812;7.132;2023-04-02T07:22:58;4.70;;;4.40;;
4106;SDS011;21906;50.812;7.132;2023-04-02T07:25:24;4.37;;;4.07;;
4106;SDS011;21906;50.812;7.132;2023-04-02T07:27:51;4.70;;;4.13;;
4106;SDS011;21906;50.812;7.132;2023-04-02T07:30:17;4.50;;;4.20;;
4106;SDS011;21906;50.812;7.132;2023-04-02T07:32:43;4.63;;;4.33;;
4106;SDS011;21906;50.812;7.132;2023-04-02T07:35:09;4.57;;;4.27;;
4106;SDS011;21906;50.812;7.132;2023-04-02T07:37:36;4.53;;;4.23;;
4106;SDS011;21906;50.812;7.132;2023-04-02T07:40:02;4.60;;;4.30;;
4106;SDS011;21906;50.812;7.132;2023-04-02T07:42:35;4.40;;;4.10;;
4106;SDS011;21906;50.812;7.132;2023-04-02T07:45:01;4.43;;;4.10;;
4106;SDS011;21906;50.812;7.132;2023-04-02T07:47:28;5.33;;;4.93;;
4106;SDS011;21906;50.812;7.132;2023-04-02T07:49:53;4.80;;;4.50;;
4106;SDS011;21906;50.812;7.132;2023-04-02T07:52:19;4.17;;;3.87;;
4106;SDS011;21906;50.812;7.132;2023-04-02T07:54:45;4.60;;;4.27;;
4106;SDS011;21906;50.812;7.132;2023-04-02T07:57:11;5.03;;;4.60;;
4106;SDS011;21906;50.812;7.132;2023-04-02T07:59:37;4.47;;;4.17;;
4106;SDS011;21906;50.812;7.132;2023-04-02T08:02:02;4.63;;;4.33;;
4106;SDS011;21906;50.812;7.132;2023-04-02T08:04:28;4.97;;;4.67;;
4106;SDS011;21906;50.812;7.132;2023-04-02T08:06:54;5.10;;;4.70;;
4106;SDS011;21906;50.812;7.132;2023-04-02T08:09:19;5.20;;;4.90;;
4106;SDS011;21906;50.812;7.132;2023-04-02T08:11:45;5.20;;;4.80;;
4106;SDS011;21906;50.812;7.132;2023-04-02T08:14:11;5.10;;;4.70;;
4106;SDS011;21906;50.812;7.132;2023-04-02T08:16:47;4.73;;;4.37;;
4106;SDS011;21906;50.812;7.132;2023-04-02T08:19:12;5.47;;;5.07;;
4106;SDS011;21906;50.812;7.132;2023-04-02T08:21:39;5.27;;;4.87;;
4106;SDS011;21906;50.812;7.132;2023-04-02T08:24:05;4.90;;;4.60;;
4106;SDS011;21906;50.812;7.132;2023-04-02T08:26:31;5.80;;;5.40;;
4106;SDS011;21906;50.812;7.132;2023-04-02T08:28:56;5.80;;;5.30;;
4106;SDS011;21906;50.812;7.132;2023-04-02T08:31:22;5.27;;;4.87;;
4106;SDS011;21906;50.812;7.132;2023-04-02T08:33:48;5.80;;;5.37;;
4106;SDS011;21906;50.812;7.132;2023-04-02T08:36:14;5.70;;;5.30;;
4106;SDS011;21906;50.812;7.132;2023-04-02T08:38:41;5.60;;;5.20;;
4106;SDS011;21906;50.812;7.132;2023-04-02T08:41:07;6.00;;;5.40;;
4106;SDS011;21906;50.812;7.132;2023-04-02T08:49:28;5.70;;;5.20;;
4106;SDS011;21906;50.812;7.132;2023-04-02T08:52:21;5.43;;;5.03;;
4106;SDS011;21906;50.812;7.132;2023-04-02T08:54:49;5.33;;;4.93;;
4106;SDS011;21906;50.812;7.132;2023-04-02T08:59:50;5.17;;;4.77;;
4106;SDS011;21906;50.812;7.132;2023-04-02T09:02:42;4.90;;;4.60;;
4106;SDS011;21906;50.812;7.132;2023-04-02T09:05:17;5.47;;;5.07;;
4106;SDS011;21906;50.812;7.132;2023-04-02T09:07:47;5.17;;;4.77;;
4106;SDS011;21906;50.812;7.132;2023-04-02T09:10:16;5.20;;;4.70;;
4106;SDS011;21906;50.812;7.132;2023-04-02T09:12:44;4.97;;;4.67;;
4106;SDS011;21906;50.812;7.132;2023-04-02T09:17:46;5.63;;;5.23;;
4106;SDS011;21906;50.812;7.132;2023-04-02T09:20:19;5.90;;;5.40;;
4106;SDS011;21906;50.812;7.132;2023-04-02T09:22:50;6.00;;;5.50;;
4106;SDS011;21906;50.812;7.132;2023-04-02T09:25:22;5.33;;;4.90;;
4106;SDS011;21906;50.812;7.132;2023-04-02T09:27:51;5.73;;;5.27;;
4106;SDS011;21906;50.812;7.132;2023-04-02T09:30:26;6.30;;;5.73;;
4106;SDS011;21906;50.812;7.132;2023-04-02T09:33:00;6.27;;;5.80;;
4106;SDS011;21906;50.812;7.132;2023-04-02T09:35:31;7.40;;;6.70;;
4106;SDS011;21906;50.812;7.132;2023-04-02T09:43:27;6.73;;;6.13;;
4106;SDS011;21906;50.812;7.132;2023-04-02T09:46:01;10.80;;;6.40;;
4106;SDS011;21906;50.812;7.132;2023-04-02T09:48:53;7.30;;;6.60;;
4106;SDS011;21906;50.812;7.132;2023-04-02T09:51:26;9.60;;;7.00;;
4106;SDS011;21906;50.812;7.132;2023-04-02T09:56:35;7.20;;;6.60;;
4106;SDS011;21906;50.812;7.132;2023-04-02T10:01:31;8.30;;;7.60;;
4106;SDS011;21906;50.812;7.132;2023-04-02T10:04:04;9.03;;;6.87;;
4106;SDS011;21906;50.812;7.132;2023-04-02T10:06:50;7.70;;;6.90;;
4106;SDS011;21906;50.812;7.132;2023-04-02T10:09:18;7.57;;;6.77;;
4106;SDS011;21906;50.812;7.132;2023-04-02T10:11:56;7.67;;;6.97;;
4106;SDS011;21906;50.812;7.132;2023-04-02T10:14:30;8.20;;;7.10;;
4106;SDS011;21906;50.812;7.132;2023-04-02T10:20:10;6.67;;;6.07;;
4106;SDS011;21906;50.812;7.132;2023-04-02T10:22:41;7.30;;;6.60;;
4106;SDS011;21906;50.812;7.132;2023-04-02T10:25:17;7.23;;;6.53;;
4106;SDS011;21906;50.812;7.132;2023-04-02T10:28:02;6.63;;;6.03;;
4106;SDS011;21906;50.812;7.132;2023-04-02T10:33:21;7.10;;;6.50;;
4106;SDS011;21906;50.812;7.132;2023-04-02T10:47:34;6.83;;;6.23;;
4106;SDS011;21906;50.812;7.132;2023-04-02T10:53:22;7.20;;;6.50;;
4106;SDS011;21906;50.812;7.132;2023-04-02T10:55:55;7.00;;;6.30;;
4106;SDS011;21906;50.812;7.132;2023-04-02T10:58:27;6.63;;;6.10;;
4106;SDS011;21906;50.812;7.132;2023-04-02T11:00:58;7.10;;;6.40;;
4106;SDS011;21906;50.812;7.132;2023-04-02T11:03:30;6.80;;;6.20;;
4106;SDS011;21906;50.812;7.132;2023-04-02T11:06:22;6.50;;;6.00;;
4106;SDS011;21906;50.812;7.132;2023-04-02T11:09:13;6.40;;;5.83;;
4106;SDS011;21906;50.812;7.132;2023-04-02T11:11:43;7.87;;;7.07;;
4106;SDS011;21906;50.812;7.132;2023-04-02T11:16:48;6.20;;;5.70;;
4106;SDS011;21906;50.812;7.132;2023-04-02T11:21:48;6.00;;;5.50;;
4106;SDS011;21906;50.812;7.132;2023-04-02T11:29:37;6.57;;;6.00;;
4106;SDS011;21906;50.812;7.132;2023-04-02T11:32:32;5.50;;;5.00;;
4106;SDS011;21906;50.812;7.132;2023-04-02T11:35:23;4.50;;;4.20;;
4106;SDS011;21906;50.812;7.132;2023-04-02T11:40:49;6.13;;;5.63;;
4106;SDS011;21906;50.812;7.132;2023-04-02T11:48:40;8.00;;;7.20;;
4106;SDS011;21906;50.812;7.132;2023-04-02T11:53:45;7.37;;;6.67;;
4106;SDS011;21906;50.812;7.132;2023-04-02T11:59:03;6.93;;;6.43;;
4106;SDS011;21906;50.812;7.132;2023-04-02T12:07:27;7.00;;;6.40;;
4106;SDS011;21906;50.812;7.132;2023-04-02T12:09:59;6.33;;;5.83;;
4106;SDS011;21906;50.812;7.132;2023-04-02T12:12:39;6.20;;;5.70;;
4106;SDS011;21906;50.812;7.132;2023-04-02T12:15:27;5.90;;;5.30;;
4106;SDS011;21906;50.812;7.132;2023-04-02T12:20:54;7.47;;;5.53;;
4106;SDS011;21906;50.812;7.132;2023-04-02T12:23:22;5.30;;;4.90;;
4106;SDS011;21906;50.812;7.132;2023-04-02T12:25:59;5.70;;;5.33;;
4106;SDS011;21906;50.812;7.132;2023-04-02T12:28:27;5.10;;;4.80;;
4106;SDS011;21906;50.812;7.132;2023-04-02T12:33:36;5.53;;;5.13;;
4106;SDS011;21906;50.812;7.132;2023-04-02T12:36:04;5.53;;;5.10;;
4106;SDS011;21906;50.812;7.132;2023-04-02T12:38:44;6.00;;;5.10;;
4106;SDS011;21906;50.812;7.132;2023-04-02T12:41:20;5.63;;;5.23;;
4106;SDS011;21906;50.812;7.132;2023-04-02T12:46:30;5.40;;;5.00;;
4106;SDS011;21906;50.812;7.132;2023-04-02T12:49:03;4.80;;;4.50;;
4106;SDS011;21906;50.812;7.132;2023-04-02T12:51:30;5.17;;;4.87;;
4106;SDS011;21906;50.812;7.132;2023-04-02T12:53:56;5.23;;;4.83;;
4106;SDS011;21906;50.812;7.132;2023-04-02T12:56:22;4.73;;;4.37;;
4106;SDS011;21906;50.812;7.132;2023-04-02T12:58:55;4.40;;;4.10;;
4106;SDS011;21906;50.812;7.132;2023-04-02T13:01:22;4.67;;;4.37;;
4106;SDS011;21906;50.812;7.132;2023-04-02T13:04:10;4.20;;;3.90;;
4106;SDS011;21906;50.812;7.132;2023-04-02T13:06:37;4.00;;;3.73;;
4106;SDS011;21906;50.812;7.132;2023-04-02T13:09:05;4.10;;;3.70;;
4106;SDS011;21906;50.812;7.132;2023-04-02T13:11:50;3.40;;;3.20;;
4106;SDS011;21906;50.812;7.132;2023-04-02T13:14:16;3.93;;;3.60;;
4106;SDS011;21906;50.812;7.132;2023-04-02T13:16:44;4.80;;;3.80;;
4106;SDS011;21906;50.812;7.132;2023-04-02T13:21:41;4.43;;;4.03;;
4106;SDS011;21906;50.812;7.132;2023-04-02T13:24:24;5.10;;;4.70;;
4106;SDS011;21906;50.812;7.132;2023-04-02T13:26:58;5.43;;;5.03;;
4106;SDS011;21906;50.812;7.132;2023-04-02T13:29:26;5.93;;;5.20;;
4106;SDS011;21906;50.812;7.132;2023-04-02T13:32:00;5.60;;;5.20;;
4106;SDS011;21906;50.812;7.132;2023-04-02T13:34:28;5.20;;;4.70;;
4106;SDS011;21906;50.812;7.132;2023-04-02T13:36:54;5.60;;;5.10;;
4106;SDS011;21906;50.812;7.132;2023-04-02T13:39:21;4.87;;;4.57;;
4106;SDS011;21906;50.812;7.132;2023-04-02T13:41:48;5.30;;;4.90;;
4106;SDS011;21906;50.812;7.132;2023-04-02T13:46:53;5.40;;;5.00;;
4106;SDS011;21906;50.812;7.132;2023-04-02T13:49:19;6.00;;;5.40;;
4106;SDS011;21906;50.812;7.132;2023-04-02T13:51:50;6.27;;;5.77;;
4106;SDS011;21906;50.812;7.132;2023-04-02T13:56:49;6.83;;;5.93;;
4106;SDS011;21906;50.812;7.132;2023-04-02T13:59:15;5.80;;;5.33;;
4106;SDS011;21906;50.812;7.132;2023-04-02T14:01:42;6.00;;;5.50;;
4106;SDS011;21906;50.812;7.132;2023-04-02T14:04:09;5.50;;;5.10;;
4106;SDS011;21906;50.812;7.132;2023-04-02T14:12:13;4.80;;;4.50;;
4106;SDS011;21906;50.812;7.132;2023-04-02T14:17:21;5.53;;;5.10;;
4106;SDS011;21906;50.812;7.132;2023-04-02T14:35:59;5.17;;;4.27;;
4106;SDS011;21906;50.812;7.132;2023-04-02T14:38:45;5.03;;;4.00;;
4106;SDS011;21906;50.812;7.132;2023-04-02T14:41:38;4.97;;;4.57;;
4106;SDS011;21906;50.812;7.132;2023-04-02T14:44:11;3.57;;;3.37;;
4106;SDS011;21906;50.812;7.132;2023-04-02T14:46:37;5.33;;;3.57;;
4106;SDS011;21906;50.812;7.132;2023-04-02T14:49:37;3.67;;;3.43;;
4106;SDS011;21906;50.812;7.132;2023-04-02T14:52:04;3.70;;;3.40;;
4106;SDS011;21906;50.812;7.132;2023-04-02T14:57:24;3.63;;;3.30;;
4106;SDS011;21906;50.812;7.132;2023-04-02T15:00:03;3.53;;;3.23;;
4106;SDS011;21906;50.812;7.132;2023-04-02T15:02:35;3.00;;;2.80;;
4106;SDS011;21906;50.812;7.132;2023-04-02T15:07:36;3.00;;;2.80;;
4106;SDS011;21906;50.812;7.132;2023-04-02T15:10:23;3.00;;;2.73;;
4106;SDS011;21906;50.812;7.132;2023-04-02T15:12:54;3.60;;;3.20;;
4106;SDS011;21906;50.812;7.132;2023-04-02T15:18:01;2.60;;;2.40;;
4106;SDS011;21906;50.812;7.132;2023-04-02T15:20:33;2.97;;;2.77;;
4106;SDS011;21906;50.812;7.132;2023-04-02T15:23:09;2.73;;;2.53;;
4106;SDS011;21906;50.812;7.132;2023-04-02T15:25:49;2.97;;;2.77;;
4106;SDS011;21906;50.812;7.132;2023-04-02T15:29:17;2.80;;;2.50;;
4106;SDS011;21906;50.812;7.132;2023-04-02T15:31:14;3.17;;;2.97;;
4106;SDS011;21906;50.812;7.132;2023-04-02T15:36:19;3.00;;;2.80;;
4106;SDS011;21906;50.812;7.132;2023-04-02T16:01:20;3.20;;;3.00;;
4106;SDS011;21906;50.812;7.132;2023-04-02T16:12:10;2.63;;;2.27;;
4106;SDS011;21906;50.812;7.132;2023-04-02T16:14:39;3.03;;;2.73;;
4106;SDS011;21906;50.812;7.132;2023-04-02T16:17:10;2.77;;;2.47;;
4106;SDS011;21906;50.812;7.132;2023-04-02T16:19:51;2.97;;;2.20;;
4106;SDS011;21906;50.812;7.132;2023-04-02T16:22:25;2.80;;;2.60;;
4106;SDS011;21906;50.812;7.132;2023-04-02T16:25:00;3.30;;;3.10;;
4106;SDS011;21906;50.812;7.132;2023-04-02T16:27:39;2.97;;;2.67;;
4106;SDS011;21906;50.812;7.132;2023-04-02T16:38:45;3.50;;;2.00;;
4106;SDS011;21906;50.812;7.132;2023-04-02T16:41:32;2.20;;;2.00;;
4106;SDS011;21906;50.812;7.132;2023-04-02T16:44:10;2.43;;;2.20;;
4106;SDS011;21906;50.812;7.132;2023-04-02T17:06:08;2.37;;;2.10;;
4106;SDS011;21906;50.812;7.132;2023-04-02T17:09:07;2.20;;;1.90;;
4106;SDS011;21906;50.812;7.132;2023-04-02T17:11:49;2.10;;;1.90;;
4106;SDS011;21906;50.812;7.132;2023-04-02T17:14:26;2.07;;;1.97;;
4106;SDS011;21906;50.812;7.132;2023-04-02T17:17:07;3.20;;;2.10;;
4106;SDS011;21906;50.812;7.132;2023-04-02T17:19:37;2.63;;;2.33;;
4106;SDS011;21906;50.812;7.132;2023-04-02T17:22:04;2.43;;;2.20;;
4106;SDS011;21906;50.812;7.132;2023-04-02T17:27:15;2.93;;;2.57;;
4106;SDS011;21906;50.812;7.132;2023-04-02T17:29:58;2.73;;;2.40;;
4106;SDS011;21906;50.812;7.132;2023-04-02T17:32:30;3.13;;;2.90;;
4106;SDS011;21906;50.812;7.132;2023-04-02T17:38:04;2.40;;;2.20;;
4106;SDS011;21906;50.812;7.132;2023-04-02T17:46:22;3.90;;;2.80;;
4106;SDS011;21906;50.812;7.132;2023-04-02T17:51:50;7.30;;;4.00;;
4106;SDS011;21906;50.812;7.132;2023-04-02T17:57:21;2.50;;;2.30;;
4106;SDS011;21906;50.812;7.132;2023-04-02T18:05:22;2.30;;;1.93;;
4106;SDS011;21906;50.812;7.132;2023-04-02T18:08:08;2.30;;;2.10;;
4106;SDS011;21906;50.812;7.132;2023-04-02T18:13:49;3.70;;;2.23;;
4106;SDS011;21906;50.812;7.132;2023-04-02T18:22:30;2.97;;;2.07;;
4106;SDS011;21906;50.812;7.132;2023-04-02T18:25:11;3.00;;;2.43;;
4106;SDS011;21906;50.812;7.132;2023-04-02T18:27:52;2.63;;;2.43;;
4106;SDS011;21906;50.812;7.132;2023-04-02T18:30:44;2.30;;;2.10;;
4106;SDS011;21906;50.812;7.132;2023-04-02T18:48:53;2.50;;;2.30;;
4106;SDS011;21906;50.812;7.132;2023-04-02T18:51:23;3.00;;;2.80;;
4106;SDS011;21906;50.812;7.132;2023-04-02T18:56:32;2.87;;;2.57;;
4106;SDS011;21906;50.812;7.132;2023-04-02T18:59:27;2.50;;;2.30;;
4106;SDS011;21906;50.812;7.132;2023-04-02T19:02:05;2.27;;;2.17;;
4106;SDS011;21906;50.812;7.132;2023-04-02T19:04:46;3.70;;;2.70;;
4106;SDS011;21906;50.812;7.132;2023-04-02T19:07:20;4.40;;;2.40;;
4106;SDS011;21906;50.812;7.132;2023-04-02T19:09:47;2.20;;;2.00;;
4106;SDS011;21906;50.812;7.132;2023-04-02T19:12:15;2.10;;;1.90;;
4106;SDS011;21906;50.812;7.132;2023-04-02T19:14:43;1.90;;;1.70;;
4106;SDS011;21906;50.812;7.132;2023-04-02T19:25:41;3.00;;;2.70;;
4106;SDS011;21906;50.812;7.132;2023-04-02T19:28:21;1.80;;;1.70;;
4106;SDS011;21906;50.812;7.132;2023-04-02T19:31:02;2.93;;;2.10;;
4106;SDS011;21906;50.812;7.132;2023-04-02T19:33:40;2.77;;;2.20;;
4106;SDS011;21906;50.812;7.132;2023-04-02T19:36:31;1.70;;;1.60;;
4106;SDS011;21906;50.812;7.132;2023-04-02T19:41:39;2.60;;;2.40;;
4106;SDS011;21906;50.812;7.132;2023-04-02T19:44:12;2.77;;;2.57;;
4106;SDS011;21906;50.812;7.132;2023-04-02T19:46:39;2.93;;;2.07;;
4106;SDS011;21906;50.812;7.132;2023-04-02T19:49:25;2.40;;;1.90;;
4106;SDS011;21906;50.812;7.132;2023-04-02T19:51:53;1.83;;;1.73;;
4106;SDS011;21906;50.812;7.132;2023-04-02T19:54:19;2.33;;;1.90;;
4106;SDS011;21906;50.812;7.132;2023-04-02T19:56:45;2.13;;;1.60;;
4106;SDS011;21906;50.812;7.132;2023-04-02T19:59:11;1.83;;;1.73;;
4106;SDS011;21906;50.812;7.132;2023-04-02T20:01:37;3.20;;;2.40;;
4106;SDS011;21906;50.812;7.132;2023-04-02T20:04:03;2.33;;;2.10;;
4106;SDS011;21906;50.812;7.132;2023-04-02T20:06:30;1.87;;;1.77;;
4106;SDS011;21906;50.812;7.132;2023-04-02T20:08:56;1.97;;;1.80;;
4106;SDS011;21906;50.812;7.132;2023-04-02T20:11:22;3.80;;;1.80;;
4106;SDS011;21906;50.812;7.132;2023-04-02T20:13:49;3.33;;;1.83;;
4106;SDS011;21906;50.812;7.132;2023-04-02T20:16:15;3.60;;;1.90;;
4106;SDS011;21906;50.812;7.132;2023-04-02T20:18:41;2.30;;;2.10;;
4106;SDS011;21906;50.812;7.132;2023-04-02T20:21:07;3.40;;;2.13;;
4106;SDS011;21906;50.812;7.132;2023-04-02T20:23:33;2.30;;;1.80;;
4106;SDS011;21906;50.812;7.132;2023-04-02T20:26:00;2.50;;;2.30;;
4106;SDS011;21906;50.812;7.132;2023-04-02T20:28:27;2.77;;;2.50;;
4106;SDS011;21906;50.812;7.132;2023-04-02T20:30:53;2.43;;;2.23;;
4106;SDS011;21906;50.812;7.132;2023-04-02T20:33:28;2.67;;;2.20;;
4106;SDS011;21906;50.812;7.132;2023-04-02T20:35:59;2.30;;;2.10;;
4106;SDS011;21906;50.812;7.132;2023-04-02T20:38:27;2.47;;;2.27;;
4106;SDS011;21906;50.812;7.132;2023-04-02T20:40:53;3.07;;;1.80;;
4106;SDS011;21906;50.812;7.132;2023-04-02T20:43:19;2.10;;;2.00;;
4106;SDS011;21906;50.812;7.132;2023-04-02T20:45:52;1.87;;;1.73;;
4106;SDS011;21906;50.812;7.132;2023-04-02T20:48:23;3.50;;;1.93;;
4106;SDS011;21906;50.812;7.132;2023-04-02T20:50:50;4.97;;;2.40;;
4106;SDS011;21906;50.812;7.132;2023-04-02T20:53:16;2.30;;;1.83;;
4106;SDS011;21906;50.812;7.132;2023-04-02T20:55:42;1.73;;;1.63;;
4106;SDS011;21906;50.812;7.132;2023-04-02T20:58:10;2.33;;;1.93;;
4106;SDS011;21906;50.812;7.132;2023-04-02T21:00:40;2.63;;;2.10;;